Terminal Aerodrome Forecast
Issued by NWS Duluth, MN

Home | Current Version | Previous Version | Text Only | Print | Product List | Glossary On
Versions: 1 2 3 4 5 6 7 8 9 10 11 12 13 14
789
FTUS43 KDLH 222342
TAFDLH
TAF
KDLH 222342Z 2300/2324 12010KT P6SM SCT200
     FM230200 16010KT P6SM VCSH SCT050 BKN060
     FM230700 16011KT P6SM VCSH SCT025 BKN035 OVC040
      TEMPO 2307/2310 3SM -SN BKN030
     FM231300 17015G20KT P6SM SCT025 OVC050
     FM231900 18016G23KT 4SM -RA SCT012 BKN025
     FM232200 18015G21KT 3SM -SNRA BKN010 OVC020=

USA.gov is the U.S. government's official web portal to all federal, state and local government web resources and services.